Honeywell Corners, New York
Current Conditions -  °F | °C
As of 9:15 AM on Thursday 30 Oct 2014 (Local Time) from KNY0 Reporting Station
Broken Clouds Broken Clouds  
Wind Chill: 38°   Ceiling: 3600
Heat Index: 43°   Visibility: 10mi
Dew Point: 37°   Wind: 8mph
Humidity: 78%   Direction: 290°WNW
Pressure: 29.98"   Gusts: NA
Location:  43.0744°N, 74.1473°W
Report Text: KNY0 301315Z AUTO 29007KT 10SM SCT017 BKN036 06/03 A2998 RMK AO2 T00620027
Loading
Personal Weather Stations






























Interactive Weather Map
Tropical Storm Tracking
New forecast layout! Learn more

10-Day Weather Forecast

Advertisements
Track Severe Weather on mobile